Time;durP1;ratioP1;P1;durP2;ratioP2;P2;SDS_P1;SDS_P2;PMS_P1;PMS_P2;Temp;Humidity;BMP_temperature;BMP_pressure;BME280_temperature;BME280_humidity;BME280_pressure;Samples;Min_cycle;Max_cycle;Signal;HPM_P1;HPM_P2
2023/07/28 00:01:34;;;;;;;4.03;2.67;;;18.60;99.90;;;;;;5072728;28;20517;-75
2023/07/28 00:04:01;;;;;;;2.67;1.80;;;18.50;99.90;;;;;;5074466;28;20032;-74
2023/07/28 00:06:26;;;;;;;3.22;1.88;;;18.50;99.90;;;;;;5072751;28;20035;-74
2023/07/28 00:08:52;;;;;;;4.38;2.08;;;18.60;99.90;;;;;;5074934;28;20029;-74
2023/07/28 00:11:18;;;;;;;2.45;1.52;;;18.60;99.90;;;;;;5073319;28;20029;-75
2023/07/28 00:13:44;;;;;;;5.80;1.90;;;18.60;99.90;;;;;;5074858;28;20054;-75
2023/07/28 00:16:10;;;;;;;5.18;1.52;;;18.60;99.90;;;;;;5073468;28;20040;-75
2023/07/28 00:18:36;;;;;;;3.42;2.33;;;18.60;99.90;;;;;;5075133;28;20020;-75
2023/07/28 00:21:02;;;;;;;4.65;2.10;;;18.60;99.90;;;;;;5067792;28;20524;-75
2023/07/28 00:23:28;;;;;;;2.72;1.90;;;18.60;99.90;;;;;;5074962;28;20037;-75
2023/07/28 00:25:54;;;;;;;2.30;1.77;;;18.60;99.90;;;;;;5073533;28;20035;-75
2023/07/28 00:28:19;;;;;;;3.78;1.92;;;18.60;99.90;;;;;;5074577;28;20024;-76
2023/07/28 00:30:49;;;;;;;3.28;2.05;;;18.50;99.90;;;;;;5072669;28;20028;-76
2023/07/28 00:33:15;;;;;;;3.72;1.90;;;18.60;99.90;;;;;;5074137;28;20025;-76
2023/07/28 00:35:41;;;;;;;2.95;1.90;;;18.60;99.90;;;;;;5073545;28;20016;-75
2023/07/28 00:38:07;;;;;;;2.55;2.15;;;18.60;99.90;;;;;;5074382;28;20492;-75
2023/07/28 00:40:32;;;;;;;3.35;1.60;;;18.60;99.90;;;;;;5071788;28;20024;-75
2023/07/28 00:42:58;;;;;;;2.83;1.95;;;18.60;99.90;;;;;;5072991;28;20053;-75
2023/07/28 00:45:24;;;;;;;4.68;2.25;;;18.60;99.90;;;;;;5071113;28;20788;-75
2023/07/28 00:47:50;;;;;;;2.28;1.85;;;18.60;99.90;;;;;;5071617;28;20058;-75
2023/07/28 00:50:15;;;;;;;2.35;1.80;;;18.60;99.90;;;;;;5071309;28;20103;-75
2023/07/28 00:52:42;;;;;;;2.92;1.90;;;18.60;99.90;;;;;;5072825;28;20051;-75
2023/07/28 00:55:08;;;;;;;3.10;2.10;;;18.60;99.90;;;;;;5071897;28;20433;-75
2023/07/28 00:57:34;;;;;;;2.80;2.00;;;18.60;99.90;;;;;;5072687;28;20162;-75
2023/07/28 01:00:00;;;;;;;4.72;2.33;;;18.70;99.90;;;;;;5071320;28;20043;-75
2023/07/28 01:02:26;;;;;;;3.90;2.20;;;18.70;99.90;;;;;;5071037;28;20040;-75
2023/07/28 01:04:52;;;;;;;2.80;2.00;;;18.60;99.90;;;;;;5069321;28;20407;-75
2023/07/28 01:07:41;;;;;;;4.32;2.10;;;18.60;99.90;;;;;;5070617;28;20028;-75
2023/07/28 01:10:14;;;;;;;3.28;1.98;;;18.60;99.90;;;;;;5051718;28;20472;-76
2023/07/28 01:12:40;;;;;;;5.07;1.95;;;18.60;99.90;;;;;;5069284;28;20024;-75
2023/07/28 01:15:06;;;;;;;4.15;2.40;;;18.50;99.90;;;;;;5071242;28;20436;-74
2023/07/28 01:17:32;;;;;;;3.08;2.00;;;18.40;99.90;;;;;;5057099;28;20497;-75
2023/07/28 01:19:59;;;;;;;4.15;2.47;;;18.30;99.90;;;;;;5071100;28;20032;-75
2023/07/28 01:22:47;;;;;;;3.17;1.85;;;18.20;99.90;;;;;;5066230;28;20045;-76
2023/07/28 01:25:25;;;;;;;3.33;1.98;;;18.20;99.90;;;;;;5071197;28;20051;-75
2023/07/28 01:27:53;;;;;;;4.68;3.00;;;18.10;99.90;;;;;;5048918;28;20017;-75
2023/07/28 01:30:20;;;;;;;6.65;2.50;;;18.10;99.90;;;;;;5070570;28;20129;-75
2023/07/28 01:32:48;;;;;;;5.78;2.55;;;18.00;99.90;;;;;;5073503;28;20016;-76
2023/07/28 01:35:13;;;;;;;5.55;2.55;;;17.90;99.90;;;;;;5069438;28;20060;-75
2023/07/28 01:37:39;;;;;;;3.25;2.33;;;17.90;99.90;;;;;;5073741;28;20052;-75
2023/07/28 01:40:05;;;;;;;3.45;2.50;;;17.90;99.90;;;;;;5070612;28;20444;-75
2023/07/28 01:42:31;;;;;;;3.88;2.45;;;17.90;99.90;;;;;;5072438;28;20028;-75
2023/07/28 01:44:56;;;;;;;3.45;1.88;;;17.80;99.90;;;;;;5070111;28;20082;-75
2023/07/28 01:47:22;;;;;;;3.65;2.28;;;17.80;99.90;;;;;;5072969;28;20131;-76
2023/07/28 01:49:48;;;;;;;4.15;2.55;;;17.80;99.90;;;;;;5069491;28;20058;-76
2023/07/28 01:52:13;;;;;;;3.05;2.15;;;17.70;99.90;;;;;;5072763;28;20058;-76
2023/07/28 01:54:39;;;;;;;4.35;2.53;;;17.70;99.90;;;;;;5069183;28;20054;-76
2023/07/28 01:57:05;;;;;;;3.70;2.20;;;17.70;99.90;;;;;;5071777;28;20079;-76
2023/07/28 01:59:30;;;;;;;4.15;2.30;;;17.60;99.90;;;;;;5070254;28;20378;-76
2023/07/28 02:01:58;;;;;;;4.50;2.70;;;17.60;99.90;;;;;;5073072;28;20123;-76
2023/07/28 02:04:23;;;;;;;5.05;2.40;;;17.50;99.90;;;;;;5069223;28;20403;-76
2023/07/28 02:06:49;;;;;;;4.13;2.40;;;17.50;99.90;;;;;;5073180;28;20032;-75
2023/07/28 02:09:15;;;;;;;5.75;3.15;;;17.50;99.90;;;;;;5071451;28;20067;-76
2023/07/28 02:11:40;;;;;;;4.78;2.40;;;17.50;99.90;;;;;;5071217;28;20023;-76
2023/07/28 02:14:06;;;;;;;5.90;2.72;;;17.50;99.90;;;;;;5063972;28;20449;-76
2023/07/28 02:16:32;;;;;;;4.63;2.30;;;17.40;99.90;;;;;;5060867;28;20085;-76
2023/07/28 02:18:57;;;;;;;4.70;2.42;;;17.40;99.90;;;;;;5057979;28;20092;-76
2023/07/28 02:21:23;;;;;;;3.40;2.15;;;17.40;99.90;;;;;;5054390;28;20025;-76
2023/07/28 02:23:49;;;;;;;4.50;2.50;;;17.30;99.90;;;;;;5063044;28;20683;-76
2023/07/28 02:26:15;;;;;;;6.65;2.40;;;17.30;99.90;;;;;;5064566;28;20131;-75
2023/07/28 02:28:40;;;;;;;4.15;2.25;;;17.20;99.90;;;;;;5064843;28;20048;-75
2023/07/28 02:31:06;;;;;;;3.58;2.55;;;17.30;99.90;;;;;;5058388;28;20024;-76
2023/07/28 02:33:35;;;;;;;4.47;2.58;;;17.20;99.90;;;;;;5061937;28;20037;-76
2023/07/28 02:36:01;;;;;;;5.20;2.35;;;17.30;99.90;;;;;;5058374;28;20072;-75
2023/07/28 02:38:27;;;;;;;3.45;2.08;;;17.20;99.90;;;;;;5045507;28;20029;-75
2023/07/28 02:40:53;;;;;;;3.47;2.60;;;17.30;99.90;;;;;;5057388;28;20036;-75
2023/07/28 02:43:18;;;;;;;2.92;2.30;;;17.30;99.90;;;;;;5049126;28;20112;-75
2023/07/28 02:45:48;;;;;;;3.85;2.58;;;17.30;99.90;;;;;;5065026;28;20024;-75
2023/07/28 02:48:14;;;;;;;4.60;2.30;;;17.40;99.90;;;;;;5066741;28;20040;-75
2023/07/28 02:50:45;;;;;;;4.07;2.38;;;17.40;99.90;;;;;;5071149;28;20720;-74
2023/07/28 02:53:11;;;;;;;4.85;2.50;;;17.40;99.90;;;;;;5068141;28;20025;-75
2023/07/28 02:55:44;;;;;;;3.33;2.42;;;17.40;99.90;;;;;;5071379;28;20040;-74
2023/07/28 02:58:10;;;;;;;3.55;2.35;;;17.40;99.90;;;;;;5067673;28;20040;-74
2023/07/28 03:00:43;;;;;;;3.35;2.10;;;17.40;99.90;;;;;;5063048;28;20021;-74
2023/07/28 03:03:10;;;;;;;4.95;2.70;;;17.40;99.90;;;;;;5067371;28;20068;-74
2023/07/28 03:05:36;;;;;;;6.43;2.97;;;17.40;99.90;;;;;;5070459;28;20446;-74
2023/07/28 03:08:02;;;;;;;3.70;2.67;;;17.40;99.90;;;;;;5067869;28;20032;-74
2023/07/28 03:10:28;;;;;;;3.50;2.88;;;17.40;99.90;;;;;;5075020;28;20020;-74
2023/07/28 03:12:55;;;;;;;3.72;2.72;;;17.40;99.90;;;;;;5071723;28;20027;-75
2023/07/28 03:15:21;;;;;;;4.15;2.95;;;17.40;99.90;;;;;;5074308;28;20021;-75
2023/07/28 03:17:48;;;;;;;7.60;3.58;;;17.40;99.90;;;;;;5071838;28;20438;-74
2023/07/28 03:20:14;;;;;;;3.83;2.95;;;17.40;99.90;;;;;;5068425;28;20029;-74
2023/07/28 03:22:39;;;;;;;4.63;2.70;;;17.40;99.90;;;;;;5064584;28;20059;-73
2023/07/28 03:25:05;;;;;;;6.32;3.15;;;17.40;99.90;;;;;;5072738;28;20052;-73
2023/07/28 03:27:31;;;;;;;3.97;3.03;;;17.40;99.90;;;;;;5068383;28;20044;-73
2023/07/28 03:29:57;;;;;;;6.50;2.70;;;17.40;99.90;;;;;;5072262;28;20436;-74
2023/07/28 03:32:22;;;;;;;3.95;2.50;;;17.40;99.90;;;;;;5068558;28;20029;-75
2023/07/28 03:34:48;;;;;;;4.15;3.33;;;17.50;99.90;;;;;;5072408;28;20027;-74
2023/07/28 03:37:14;;;;;;;3.78;3.15;;;17.50;99.90;;;;;;5069260;28;20025;-74
2023/07/28 03:39:39;;;;;;;4.18;3.10;;;17.50;99.90;;;;;;5072414;28;20024;-74
2023/07/28 03:42:05;;;;;;;7.82;3.70;;;17.50;99.90;;;;;;5069374;28;20039;-74
2023/07/28 03:44:31;;;;;;;4.38;3.17;;;17.50;99.90;;;;;;5073061;28;20027;-74
2023/07/28 03:46:56;;;;;;;4.18;3.00;;;17.50;99.90;;;;;;5069503;28;20048;-74
2023/07/28 03:49:22;;;;;;;5.13;3.17;;;17.50;99.90;;;;;;5073327;28;20054;-74
2023/07/28 03:51:48;;;;;;;9.23;3.28;;;17.50;99.90;;;;;;5063852;28;20145;-74
2023/07/28 03:54:13;;;;;;;6.82;3.30;;;17.50;99.90;;;;;;5073427;28;20121;-74
2023/07/28 03:56:39;;;;;;;5.05;3.50;;;17.50;99.90;;;;;;5069175;28;20029;-74
2023/07/28 03:59:05;;;;;;;9.45;3.70;;;17.50;99.90;;;;;;5073280;28;20526;-74
2023/07/28 04:01:31;;;;;;;5.50;3.50;;;17.50;99.90;;;;;;5069031;28;20408;-74
2023/07/28 04:03:57;;;;;;;8.05;3.70;;;17.50;99.90;;;;;;5072279;28;20029;-74
2023/07/28 04:06:43;;;;;;;4.25;3.15;;;17.50;99.90;;;;;;5068209;28;20448;-75
2023/07/28 04:09:11;;;;;;;5.55;4.38;;;17.50;99.90;;;;;;5070292;28;20016;-74
2023/07/28 04:11:37;;;;;;;5.20;3.83;;;17.50;99.90;;;;;;5071065;28;20388;-74
2023/07/28 04:14:04;;;;;;;4.45;3.35;;;17.50;99.90;;;;;;5070197;28;20016;-75
2023/07/28 04:16:29;;;;;;;4.75;3.60;;;17.50;99.90;;;;;;5071702;28;20112;-76
2023/07/28 04:18:55;;;;;;;5.53;3.72;;;17.50;99.90;;;;;;5068289;28;20114;-74
2023/07/28 04:21:21;;;;;;;4.53;3.38;;;17.50;99.90;;;;;;5061824;28;20024;-75
2023/07/28 04:23:46;;;;;;;7.07;4.18;;;17.40;99.90;;;;;;5069021;28;20055;-74
2023/07/28 04:26:12;;;;;;;7.63;3.50;;;17.40;99.90;;;;;;5070563;28;20086;-74
2023/07/28 04:28:38;;;;;;;6.80;3.70;;;17.40;99.90;;;;;;5068927;28;20021;-74
2023/07/28 04:31:03;;;;;;;5.57;4.13;;;17.40;99.90;;;;;;5069893;28;20085;-75
2023/07/28 04:33:29;;;;;;;7.13;4.05;;;17.40;99.90;;;;;;5068353;28;20037;-75
2023/07/28 04:35:55;;;;;;;5.65;3.88;;;17.40;99.90;;;;;;5069228;28;20021;-75
2023/07/28 04:38:20;;;;;;;8.38;3.92;;;17.40;99.90;;;;;;5068083;28;20492;-74
2023/07/28 04:40:46;;;;;;;6.40;3.53;;;17.40;99.90;;;;;;5070376;28;20500;-75
2023/07/28 04:43:11;;;;;;;6.95;3.92;;;17.40;99.90;;;;;;5063447;28;20032;-75
2023/07/28 04:45:37;;;;;;;8.30;4.00;;;17.30;99.90;;;;;;5076229;28;20037;-75
2023/07/28 04:48:03;;;;;;;6.70;4.18;;;17.30;99.90;;;;;;5072183;28;20024;-75
2023/07/28 04:50:29;;;;;;;10.60;4.20;;;17.30;99.90;;;;;;5067378;28;20059;-75
2023/07/28 04:52:55;;;;;;;5.15;3.67;;;17.20;99.90;;;;;;5060712;28;20028;-74
2023/07/28 04:55:20;;;;;;;7.60;3.83;;;17.20;99.90;;;;;;5065768;28;20024;-75
2023/07/28 04:57:46;;;;;;;6.25;4.15;;;17.30;99.90;;;;;;5075753;28;20511;-75
2023/07/28 05:00:12;;;;;;;4.88;3.60;;;17.30;99.90;;;;;;5071474;28;20048;-75
2023/07/28 05:02:38;;;;;;;5.05;3.30;;;17.30;99.90;;;;;;5070732;28;20028;-75
2023/07/28 05:05:04;;;;;;;6.65;4.10;;;17.40;99.90;;;;;;5071033;28;20423;-75
2023/07/28 05:07:30;;;;;;;8.75;3.83;;;17.40;99.90;;;;;;5069533;28;20071;-75
2023/07/28 05:09:55;;;;;;;5.65;3.97;;;17.50;99.90;;;;;;5072047;28;20017;-75
2023/07/28 05:12:21;;;;;;;7.70;3.63;;;17.50;99.90;;;;;;5070215;28;20027;-75
2023/07/28 05:14:47;;;;;;;5.43;4.25;;;17.50;99.90;;;;;;5067491;28;20069;-75
2023/07/28 05:17:12;;;;;;;6.30;3.70;;;17.50;99.90;;;;;;5069018;28;20131;-76
2023/07/28 05:19:38;;;;;;;6.38;3.47;;;17.60;99.90;;;;;;5059167;28;20027;-76
2023/07/28 05:22:06;;;;;;;5.70;3.60;;;17.60;99.90;;;;;;5061614;28;20047;-76
2023/07/28 05:24:32;;;;;;;4.93;3.90;;;17.70;99.90;;;;;;5059020;28;20108;-75
2023/07/28 05:26:58;;;;;;;4.43;3.45;;;17.70;99.90;;;;;;5061844;28;20031;-76
2023/07/28 05:29:24;;;;;;;5.68;3.33;;;17.80;99.90;;;;;;5059062;28;20080;-75
2023/07/28 05:31:50;;;;;;;8.65;3.78;;;17.90;99.90;;;;;;5061735;28;20077;-75
2023/07/28 05:34:15;;;;;;;5.88;3.55;;;18.00;99.90;;;;;;5058336;28;20021;-75
2023/07/28 05:36:43;;;;;;;7.25;4.10;;;18.00;99.90;;;;;;5059645;28;20020;-74
2023/07/28 05:39:09;;;;;;;7.82;3.83;;;18.10;99.90;;;;;;5057325;28;20476;-74
2023/07/28 05:41:36;;;;;;;4.03;3.30;;;18.20;99.90;;;;;;5061336;28;20083;-75
2023/07/28 05:44:02;;;;;;;6.80;3.80;;;18.30;99.90;;;;;;5059145;28;20158;-74
2023/07/28 05:46:28;;;;;;;4.35;2.90;;;18.40;99.90;;;;;;5060519;28;20102;-75
2023/07/28 05:48:55;;;;;;;5.82;3.58;;;18.60;99.90;;;;;;5059132;28;20078;-75
2023/07/28 05:51:21;;;;;;;4.03;3.10;;;18.60;99.90;;;;;;5062285;28;20017;-75
2023/07/28 05:53:47;;;;;;;4.85;3.30;;;18.80;99.90;;;;;;5057899;28;20032;-75
2023/07/28 05:56:13;;;;;;;3.75;3.10;;;18.90;99.90;;;;;;5058711;28;20443;-75
2023/07/28 05:58:38;;;;;;;5.40;3.65;;;19.00;99.90;;;;;;5057690;28;20029;-75
2023/07/28 06:01:04;;;;;;;7.15;3.80;;;19.10;99.90;;;;;;5059581;28;20025;-75
2023/07/28 06:03:30;;;;;;;4.45;3.42;;;19.20;99.90;;;;;;5057350;28;20029;-76
2023/07/28 06:05:56;;;;;;;5.32;3.00;;;19.30;99.90;;;;;;5058645;28;20057;-76
2023/07/28 06:08:22;;;;;;;4.95;3.72;;;19.30;99.90;;;;;;5057498;28;20509;-76
2023/07/28 06:10:48;;;;;;;4.60;3.20;;;19.40;99.90;;;;;;5059853;28;20061;-75
2023/07/28 06:13:14;;;;;;;7.88;3.42;;;19.50;99.90;;;;;;5057879;28;20450;-75
2023/07/28 06:15:42;;;;;;;4.95;3.40;;;19.70;99.90;;;;;;5059797;28;20052;-75
2023/07/28 06:18:08;;;;;;;3.88;2.95;;;19.80;99.90;;;;;;5057251;28;20029;-75
2023/07/28 06:20:34;;;;;;;4.47;3.85;;;19.80;99.90;;;;;;5048591;28;20033;-75
2023/07/28 06:23:00;;;;;;;4.72;2.72;;;19.90;99.90;;;;;;5057559;28;20102;-75
2023/07/28 06:25:26;;;;;;;5.05;3.22;;;20.00;99.90;;;;;;5058785;28;20025;-75
2023/07/28 06:27:52;;;;;;;4.35;3.20;;;20.10;99.90;;;;;;5057482;28;20382;-75
2023/07/28 06:30:17;;;;;;;5.18;2.60;;;20.30;99.90;;;;;;5059966;28;20094;-75
2023/07/28 06:32:43;;;;;;;3.38;2.50;;;20.50;99.90;;;;;;5057654;28;20047;-75
2023/07/28 06:35:09;;;;;;;5.25;2.90;;;20.70;99.90;;;;;;5060123;28;20051;-75
2023/07/28 06:37:38;;;;;;;6.43;2.67;;;20.80;99.90;;;;;;5056476;28;20111;-75
2023/07/28 06:40:09;;;;;;;4.40;2.50;;;21.10;99.90;;;;;;5060683;28;20024;-74
2023/07/28 06:42:36;;;;;;;5.72;2.60;;;21.30;99.90;;;;;;5056533;28;20090;-74
2023/07/28 06:45:05;;;;;;;5.93;3.17;;;21.50;99.90;;;;;;5063892;28;20078;-74
2023/07/28 06:47:31;;;;;;;4.88;2.60;;;21.60;99.90;;;;;;5060738;28;20029;-74
2023/07/28 06:49:56;;;;;;;6.88;2.60;;;21.60;99.90;;;;;;5062903;28;20032;-74
2023/07/28 06:52:22;;;;;;;4.25;2.30;;;21.50;99.90;;;;;;5061408;28;20515;-72
2023/07/28 06:54:49;;;;;;;4.70;2.60;;;21.40;99.90;;;;;;5064064;28;20458;-72
2023/07/28 06:57:15;;;;;;;4.25;2.45;;;21.30;99.90;;;;;;5061028;28;20111;-72
2023/07/28 06:59:41;;;;;;;5.43;2.70;;;21.20;99.90;;;;;;5063499;28;20043;-72
2023/07/28 07:02:07;;;;;;;3.65;2.35;;;21.20;99.90;;;;;;5060122;28;20447;-73
2023/07/28 07:04:32;;;;;;;3.03;2.20;;;21.30;99.90;;;;;;5062027;28;20037;-72
2023/07/28 07:06:58;;;;;;;5.22;2.72;;;21.40;99.90;;;;;;5048639;28;20036;-72
2023/07/28 07:09:24;;;;;;;5.30;3.40;;;21.50;99.90;;;;;;5064153;28;20491;-72
2023/07/28 07:11:50;;;;;;;4.53;2.67;;;21.50;99.90;;;;;;5061919;28;20025;-72
2023/07/28 07:14:16;;;;;;;4.18;2.70;;;21.60;99.90;;;;;;5063466;28;20033;-73
2023/07/28 07:16:42;;;;;;;5.43;2.67;;;21.70;99.90;;;;;;5061671;28;20370;-72
2023/07/28 07:19:08;;;;;;;6.88;2.60;;;21.70;99.90;;;;;;5062658;28;20029;-72
2023/07/28 07:21:34;;;;;;;5.63;3.00;;;21.70;99.90;;;;;;5061859;28;20021;-72
2023/07/28 07:24:00;;;;;;;5.93;3.15;;;21.60;99.90;;;;;;5062371;28;20048;-72
2023/07/28 07:26:26;;;;;;;6.70;3.22;;;21.60;99.90;;;;;;5062694;28;20102;-72
2023/07/28 07:28:53;;;;;;;4.00;2.95;;;21.60;99.90;;;;;;5061105;28;20029;-71
2023/07/28 07:31:19;;;;;;;6.70;3.38;;;21.80;99.90;;;;;;5061759;28;20028;-72
2023/07/28 07:33:45;;;;;;;6.50;2.70;;;21.90;99.90;;;;;;5062269;28;20052;-72
2023/07/28 07:36:18;;;;;;;7.43;3.33;;;22.00;99.90;;;;;;5062482;28;20044;-72
2023/07/28 07:38:48;;;;;;;6.07;2.75;;;22.00;99.90;;;;;;5059974;28;20056;-72
2023/07/28 07:41:21;;;;;;;4.63;3.13;;;22.20;99.90;;;;;;5062791;28;20021;-73
2023/07/28 07:43:48;;;;;;;8.68;3.42;;;22.00;99.90;;;;;;5050109;28;20109;-73
2023/07/28 07:46:15;;;;;;;6.20;2.90;;;22.40;99.90;;;;;;5060390;28;20029;-72
2023/07/28 07:48:40;;;;;;;5.13;3.05;;;22.50;99.90;;;;;;5061086;28;20032;-72
2023/07/28 07:51:07;;;;;;;3.80;3.03;;;22.50;99.90;;;;;;5064167;28;20021;-72
2023/07/28 07:53:32;;;;;;;3.78;2.63;;;22.50;99.90;;;;;;5059667;28;20033;-73
2023/07/28 07:55:58;;;;;;;6.82;2.90;;;22.70;99.90;;;;;;5062375;28;20021;-73
2023/07/28 07:58:24;;;;;;;4.93;2.75;;;22.80;99.90;;;;;;5058667;28;20411;-71
2023/07/28 08:00:49;;;;;;;3.28;2.40;;;22.70;99.90;;;;;;5062750;28;20039;-72
2023/07/28 08:03:15;;;;;;;6.93;3.15;;;22.70;99.90;;;;;;5058442;28;20053;-72
2023/07/28 08:05:41;;;;;;;5.80;2.60;;;22.60;99.90;;;;;;5061710;28;20021;-73
2023/07/28 08:08:07;;;;;;;4.70;3.10;;;22.60;99.90;;;;;;5059779;28;20017;-72
2023/07/28 08:10:33;;;;;;;4.90;2.65;;;22.60;99.90;;;;;;5059872;28;20025;-72
2023/07/28 08:12:59;;;;;;;5.90;2.90;;;22.70;99.90;;;;;;5059981;28;20104;-72
2023/07/28 08:15:26;;;;;;;3.63;2.60;;;22.90;99.90;;;;;;5061611;28;20095;-72
2023/07/28 08:17:52;;;;;;;4.63;2.40;;;23.40;99.90;;;;;;5049555;28;20025;-73
2023/07/28 08:20:18;;;;;;;6.22;2.78;;;23.70;99.90;;;;;;5053759;28;20476;-73
2023/07/28 08:22:44;;;;;;;5.13;2.70;;;24.10;99.90;;;;;;5049805;28;20476;-72
2023/07/28 08:25:09;;;;;;;4.13;2.42;;;24.40;99.90;;;;;;5060650;28;20028;-72
2023/07/28 08:27:35;;;;;;;4.18;2.25;;;24.40;99.90;;;;;;5059357;28;20032;-73
2023/07/28 08:30:01;;;;;;;6.32;2.50;;;24.30;99.90;;;;;;5062358;28;20020;-73
2023/07/28 08:32:27;;;;;;;3.85;2.50;;;24.40;99.90;;;;;;5064637;28;20027;-73
2023/07/28 08:34:53;;;;;;;3.90;2.67;;;24.60;99.90;;;;;;5072138;28;20082;-73
2023/07/28 08:37:19;;;;;;;6.95;2.75;;;24.80;99.90;;;;;;5066485;28;20496;-72
2023/07/28 08:39:45;;;;;;;4.30;2.40;;;25.00;99.90;;;;;;5066740;28;20063;-73
2023/07/28 08:42:10;;;;;;;3.83;2.45;;;25.30;99.90;;;;;;5072297;28;20028;-73
2023/07/28 08:44:36;;;;;;;7.45;2.63;;;25.50;99.90;;;;;;5071962;28;20028;-73
2023/07/28 08:47:06;;;;;;;5.45;2.53;;;25.50;99.90;;;;;;5070773;28;20026;-74
2023/07/28 08:49:34;;;;;;;4.18;2.67;;;25.10;99.90;;;;;;5071059;28;20033;-74
2023/07/28 08:52:01;;;;;;;4.85;2.42;;;25.00;99.90;;;;;;5065500;28;20021;-74
2023/07/28 08:54:27;;;;;;;7.22;3.08;;;24.90;99.90;;;;;;5068609;28;20032;-74
2023/07/28 08:56:53;;;;;;;6.15;2.35;;;24.50;99.90;;;;;;5066099;28;20864;-74
2023/07/28 08:59:26;;;;;;;7.28;2.92;;;24.40;99.90;;;;;;5067999;28;20078;-73
2023/07/28 09:02:00;;;;;;;7.00;2.53;;;24.40;99.90;;;;;;5067113;28;20028;-73
2023/07/28 09:04:26;;;;;;;3.67;2.70;;;24.40;99.90;;;;;;5064115;28;20040;-74
2023/07/28 09:06:52;;;;;;;3.10;2.20;;;24.60;99.90;;;;;;5062987;28;20104;-74
2023/07/28 09:09:22;;;;;;;4.88;2.60;;;24.60;99.90;;;;;;5055743;28;20041;-74
2023/07/28 09:11:52;;;;;;;6.43;2.53;;;24.70;99.90;;;;;;5066126;28;20036;-74
2023/07/28 09:14:19;;;;;;;3.22;2.13;;;25.00;99.90;;;;;;5070335;28;20025;-74
2023/07/28 09:16:46;;;;;;;5.00;2.75;;;25.30;99.90;;;;;;5068390;28;20496;-75
2023/07/28 09:19:12;;;;;;;5.25;2.25;;;25.50;99.90;;;;;;5070033;28;20107;-74
2023/07/28 09:21:40;;;;;;;3.60;2.20;;;25.90;99.90;;;;;;5055819;28;20095;-73
2023/07/28 09:24:15;;;;;;;5.13;2.50;;;26.30;99.90;;;;;;5055441;28;20057;-74
2023/07/28 09:26:48;;;;;;;3.50;2.13;;;26.70;99.90;;;;;;5055646;28;20029;-74
2023/07/28 09:29:16;;;;;;;4.03;2.17;;;26.50;99.90;;;;;;5056457;28;20036;-73
2023/07/28 09:31:43;;;;;;;3.78;2.80;;;26.70;99.90;;;;;;5056723;28;20029;-73
2023/07/28 09:34:10;;;;;;;4.07;1.88;;;26.60;99.90;;;;;;5055314;28;20108;-74
2023/07/28 09:36:38;;;;;;;6.63;2.60;;;26.30;99.90;;;;;;5058464;28;20029;-74
2023/07/28 09:39:07;;;;;;;3.13;2.13;;;25.80;99.90;;;;;;5057279;28;20522;-74
2023/07/28 09:41:35;;;;;;;4.32;2.90;;;25.50;99.90;;;;;;5057546;28;20020;-73
2023/07/28 09:44:01;;;;;;;5.28;2.70;;;25.40;99.90;;;;;;5054762;28;20025;-73
2023/07/28 09:46:28;;;;;;;3.55;2.20;;;25.30;99.90;;;;;;5055137;28;20027;-73
2023/07/28 09:48:58;;;;;;;4.85;2.30;;;25.30;99.90;;;;;;5056203;28;20017;-74
2023/07/28 09:51:31;;;;;;;4.10;2.22;;;25.40;99.90;;;;;;5056348;28;20025;-73
2023/07/28 09:54:02;;;;;;;4.63;2.20;;;25.40;99.90;;;;;;5056048;28;20036;-73
2023/07/28 09:56:29;;;;;;;4.13;2.28;;;25.70;99.90;;;;;;5055916;28;20021;-74
2023/07/28 09:58:57;;;;;;;5.05;2.38;;;25.80;99.90;;;;;;5055807;28;20028;-73
2023/07/28 10:01:23;;;;;;;5.40;2.40;;;26.10;99.90;;;;;;5056573;28;20104;-74
2023/07/28 10:03:49;;;;;;;4.53;2.88;;;26.10;99.90;;;;;;5055996;28;20544;-74
2023/07/28 10:06:16;;;;;;;7.35;2.63;;;26.00;99.90;;;;;;5056131;28;20023;-74
2023/07/28 10:08:43;;;;;;;3.88;3.10;;;25.80;99.90;;;;;;5055672;28;20029;-75
2023/07/28 10:11:11;;;;;;;5.78;3.00;;;25.70;99.90;;;;;;5055340;28;20465;-74
2023/07/28 10:13:42;;;;;;;5.47;2.20;;;25.80;99.90;;;;;;5053987;28;20029;-74
2023/07/28 10:16:14;;;;;;;6.43;2.50;;;25.90;99.90;;;;;;5074837;28;20052;-74
2023/07/28 10:18:40;;;;;;;4.55;2.60;;;26.30;99.90;;;;;;5061238;28;20461;-74
2023/07/28 10:21:15;;;;;;;5.22;2.20;;;26.60;99.90;;;;;;5059128;28;20013;-74
2023/07/28 10:23:41;;;;;;;6.70;2.20;;;26.90;99.90;;;;;;5059239;28;20053;-74
2023/07/28 10:26:09;;;;;;;3.08;1.88;;;27.10;99.90;;;;;;5058239;28;20048;-74
2023/07/28 10:28:41;;;;;;;3.53;2.22;;;27.20;99.90;;;;;;5057763;28;20081;-74
2023/07/28 10:31:12;;;;;;;6.00;2.38;;;27.00;99.90;;;;;;5059188;28;20017;-74
2023/07/28 10:33:40;;;;;;;4.05;2.25;;;26.90;99.90;;;;;;5059116;28;20155;-75
2023/07/28 10:36:13;;;;;;;10.35;3.17;;;26.60;99.90;;;;;;5058703;28;20354;-75
2023/07/28 10:38:39;;;;;;;6.47;2.53;;;26.60;99.90;;;;;;5072378;28;20024;-75
2023/07/28 10:41:14;;;;;;;3.97;2.78;;;26.90;99.90;;;;;;5059418;28;20025;-73
2023/07/28 10:43:40;;;;;;;6.10;2.38;;;27.30;99.90;;;;;;5057499;28;20160;-74
2023/07/28 10:46:09;;;;;;;6.18;2.58;;;27.60;99.90;;;;;;5077571;28;20029;-74
2023/07/28 10:48:43;;;;;;;3.03;2.22;;;27.40;99.90;;;;;;5059395;28;20485;-73
2023/07/28 10:51:09;;;;;;;5.22;2.25;;;27.30;99.90;;;;;;5049655;28;20025;-74
2023/07/28 10:53:35;;;;;;;6.75;2.10;;;27.50;99.90;;;;;;5037374;28;20037;-74
2023/07/28 10:56:03;;;;;;;3.25;2.50;;;27.80;99.90;;;;;;5059595;28;20017;-74
2023/07/28 10:58:31;;;;;;;7.55;2.40;;;28.00;99.90;;;;;;5060061;28;20037;-74
2023/07/28 11:00:56;;;;;;;5.90;2.47;;;27.80;99.90;;;;;;5055252;28;20024;-74
2023/07/28 11:03:23;;;;;;;4.47;2.70;;;27.50;99.90;;;;;;5058726;28;20091;-74
2023/07/28 11:05:50;;;;;;;3.35;2.13;;;27.00;99.90;;;;;;5051981;28;20047;-75
2023/07/28 11:08:16;;;;;;;4.72;2.33;;;27.10;99.90;;;;;;5052149;28;20552;-73
2023/07/28 11:10:42;;;;;;;4.43;2.35;;;27.10;99.90;;;;;;5057201;28;20087;-73
2023/07/28 11:13:07;;;;;;;7.43;2.67;;;27.00;99.90;;;;;;5061076;28;20025;-74
2023/07/28 11:15:33;;;;;;;3.80;2.80;;;26.90;99.90;;;;;;5059549;28;20097;-73
2023/07/28 11:17:59;;;;;;;4.47;2.25;;;27.00;99.90;;;;;;5062081;28;20424;-74
2023/07/28 11:20:28;;;;;;;3.13;2.40;;;27.20;99.90;;;;;;5049798;28;20029;-75
2023/07/28 11:22:59;;;;;;;3.38;2.17;;;27.30;99.90;;;;;;5056903;28;20182;-73
2023/07/28 11:25:27;;;;;;;4.88;2.22;;;27.50;99.90;;;;;;5055947;28;20024;-73
2023/07/28 11:27:54;;;;;;;5.70;2.35;;;27.40;99.90;;;;;;5058103;28;20029;-74
2023/07/28 11:30:21;;;;;;;3.80;2.45;;;27.40;99.90;;;;;;5059834;28;20091;-73
2023/07/28 11:32:49;;;;;;;2.95;2.30;;;27.40;99.90;;;;;;5059418;28;20031;-73
2023/07/28 11:35:19;;;;;;;4.55;2.30;;;27.10;99.90;;;;;;5058815;28;20070;-74
2023/07/28 11:37:47;;;;;;;4.72;2.90;;;27.00;99.90;;;;;;5059561;28;20086;-74
2023/07/28 11:40:16;;;;;;;10.05;3.03;;;27.00;99.90;;;;;;5058374;28;20028;-74
2023/07/28 11:42:44;;;;;;;4.85;2.58;;;27.00;99.90;;;;;;5053314;28;20051;-72
2023/07/28 11:45:12;;;;;;;4.80;2.85;;;27.00;99.90;;;;;;5043091;28;20079;-74
2023/07/28 11:47:38;;;;;;;4.82;2.53;;;26.90;99.90;;;;;;5046298;28;20051;-74
2023/07/28 11:50:04;;;;;;;8.52;2.83;;;26.80;99.90;;;;;;5056672;28;20768;-74
2023/07/28 11:52:36;;;;;;;5.70;2.80;;;26.70;99.90;;;;;;5071383;28;20082;-73
2023/07/28 11:55:06;;;;;;;3.58;2.88;;;26.80;99.90;;;;;;5065653;28;20169;-72
2023/07/28 11:57:32;;;;;;;3.53;2.47;;;26.80;99.90;;;;;;5071509;28;20035;-73
2023/07/28 11:59:58;;;;;;;5.10;3.03;;;26.90;99.90;;;;;;5066069;28;20037;-73
2023/07/28 12:02:28;;;;;;;3.60;2.78;;;27.00;99.90;;;;;;5071869;28;20440;-73
2023/07/28 12:04:56;;;;;;;5.10;2.93;;;26.90;99.90;;;;;;5052239;28;20033;-73
2023/07/28 12:07:32;;;;;;;4.03;2.40;;;26.80;99.90;;;;;;5072093;28;20111;-73
2023/07/28 12:10:08;;;;;;;4.80;2.53;;;26.90;99.90;;;;;;5069309;28;20100;-73
2023/07/28 12:12:45;;;;;;;6.53;3.00;;;26.90;99.90;;;;;;5069452;28;20029;-73
2023/07/28 12:15:27;;;;;;;3.15;2.22;;;27.40;99.90;;;;;;5070878;28;20021;-73
2023/07/28 12:18:13;;;;;;;6.20;2.33;;;27.40;99.90;;;;;;5066043;28;20060;-73
2023/07/28 12:20:50;;;;;;;4.65;3.40;;;27.70;99.90;;;;;;5058304;28;20025;-73
2023/07/28 12:23:20;;;;;;;5.35;2.53;;;27.60;99.90;;;;;;5069578;28;20060;-73
2023/07/28 12:25:46;;;;;;;3.10;2.05;;;27.50;99.90;;;;;;5062967;28;20492;-72
2023/07/28 12:28:12;;;;;;;2.97;2.00;;;27.50;99.90;;;;;;5070346;28;20051;-73
2023/07/28 12:30:38;;;;;;;4.63;2.40;;;27.60;99.90;;;;;;5064312;28;20064;-74
2023/07/28 12:33:05;;;;;;;4.95;2.30;;;27.50;99.90;;;;;;5070752;28;20017;-74
2023/07/28 12:35:34;;;;;;;3.92;2.55;;;27.40;99.90;;;;;;5062474;28;20025;-74
2023/07/28 12:38:00;;;;;;;4.50;2.40;;;27.70;99.90;;;;;;5048995;28;20024;-73
2023/07/28 12:40:29;;;;;;;3.45;2.35;;;28.30;99.90;;;;;;5063870;28;20056;-73
2023/07/28 12:42:55;;;;;;;3.67;2.72;;;28.80;99.90;;;;;;5069924;28;20056;-73
2023/07/28 12:45:21;;;;;;;5.53;2.60;;;29.20;99.90;;;;;;5062869;28;20025;-74